sensor_id;sensor_type;location;lat;lon;timestamp;temperature;humidity
8178;DHT22;4130;48.740;9.132;2022-10-31T00:01:20;9.50;99.90
8178;DHT22;4130;48.740;9.132;2022-10-31T00:03:48;9.60;99.90
8178;DHT22;4130;48.740;9.132;2022-10-31T00:06:14;9.50;99.90
8178;DHT22;4130;48.740;9.132;2022-10-31T00:08:43;9.50;99.90
8178;DHT22;4130;48.740;9.132;2022-10-31T00:11:10;9.40;99.90
8178;DHT22;4130;48.740;9.132;2022-10-31T00:13:37;9.40;99.90
8178;DHT22;4130;48.740;9.132;2022-10-31T00:16:05;9.40;99.90
8178;DHT22;4130;48.740;9.132;2022-10-31T00:18:33;9.40;99.90
8178;DHT22;4130;48.740;9.132;2022-10-31T00:21:00;9.40;99.90
8178;DHT22;4130;48.740;9.132;2022-10-31T00:23:27;9.40;99.90
8178;DHT22;4130;48.740;9.132;2022-10-31T00:25:54;9.40;99.90
8178;DHT22;4130;48.740;9.132;2022-10-31T00:28:20;9.40;99.90
8178;DHT22;4130;48.740;9.132;2022-10-31T00:30:47;9.30;99.90
8178;DHT22;4130;48.740;9.132;2022-10-31T00:33:14;9.30;99.90
8178;DHT22;4130;48.740;9.132;2022-10-31T00:35:42;9.40;99.90
8178;DHT22;4130;48.740;9.132;2022-10-31T00:38:08;9.40;99.90
8178;DHT22;4130;48.740;9.132;2022-10-31T00:40:35;9.40;99.90
8178;DHT22;4130;48.740;9.132;2022-10-31T00:43:02;9.40;99.90
8178;DHT22;4130;48.740;9.132;2022-10-31T00:45:28;9.40;99.90
8178;DHT22;4130;48.740;9.132;2022-10-31T00:47:55;9.40;99.90
8178;DHT22;4130;48.740;9.132;2022-10-31T00:50:22;9.30;99.90
8178;DHT22;4130;48.740;9.132;2022-10-31T00:52:50;9.30;99.90
8178;DHT22;4130;48.740;9.132;2022-10-31T00:55:16;9.30;99.90
8178;DHT22;4130;48.740;9.132;2022-10-31T00:57:46;9.30;99.90
8178;DHT22;4130;48.740;9.132;2022-10-31T01:00:13;9.30;99.90
8178;DHT22;4130;48.740;9.132;2022-10-31T01:02:39;9.20;99.90
8178;DHT22;4130;48.740;9.132;2022-10-31T01:05:06;9.20;99.90
8178;DHT22;4130;48.740;9.132;2022-10-31T01:07:35;9.20;99.90
8178;DHT22;4130;48.740;9.132;2022-10-31T01:10:04;9.10;99.90
8178;DHT22;4130;48.740;9.132;2022-10-31T01:12:36;9.10;99.90
8178;DHT22;4130;48.740;9.132;2022-10-31T01:15:03;9.10;99.90
8178;DHT22;4130;48.740;9.132;2022-10-31T01:17:30;9.10;99.90
8178;DHT22;4130;48.740;9.132;2022-10-31T01:19:57;9.10;99.90
8178;DHT22;4130;48.740;9.132;2022-10-31T01:22:24;9.20;99.90
8178;DHT22;4130;48.740;9.132;2022-10-31T01:24:50;9.20;99.90
8178;DHT22;4130;48.740;9.132;2022-10-31T01:27:18;9.20;99.90
8178;DHT22;4130;48.740;9.132;2022-10-31T01:29:45;9.20;99.90
8178;DHT22;4130;48.740;9.132;2022-10-31T01:32:12;9.30;99.90
8178;DHT22;4130;48.740;9.132;2022-10-31T01:34:39;9.30;99.90
8178;DHT22;4130;48.740;9.132;2022-10-31T01:37:05;9.30;99.90
8178;DHT22;4130;48.740;9.132;2022-10-31T01:39:32;9.30;99.90
8178;DHT22;4130;48.740;9.132;2022-10-31T01:41:59;9.30;99.90
8178;DHT22;4130;48.740;9.132;2022-10-31T01:44:52;9.30;99.90
8178;DHT22;4130;48.740;9.132;2022-10-31T01:47:25;9.30;99.90
8178;DHT22;4130;48.740;9.132;2022-10-31T01:49:56;9.40;99.90
8178;DHT22;4130;48.740;9.132;2022-10-31T01:52:26;9.40;99.90
8178;DHT22;4130;48.740;9.132;2022-10-31T01:54:59;9.40;99.90
8178;DHT22;4130;48.740;9.132;2022-10-31T01:57:27;9.40;99.90
8178;DHT22;4130;48.740;9.132;2022-10-31T02:00:00;9.30;99.90
8178;DHT22;4130;48.740;9.132;2022-10-31T02:02:29;9.30;99.90
8178;DHT22;4130;48.740;9.132;2022-10-31T02:04:56;9.30;99.90
8178;DHT22;4130;48.740;9.132;2022-10-31T02:07:27;9.30;99.90
8178;DHT22;4130;48.740;9.132;2022-10-31T02:09:57;9.10;99.90
8178;DHT22;4130;48.740;9.132;2022-10-31T02:12:24;9.20;99.90
8178;DHT22;4130;48.740;9.132;2022-10-31T02:14:51;9.20;99.90
8178;DHT22;4130;48.740;9.132;2022-10-31T02:17:19;9.30;99.90
8178;DHT22;4130;48.740;9.132;2022-10-31T02:19:51;9.30;99.90
8178;DHT22;4130;48.740;9.132;2022-10-31T02:22:24;9.40;99.90
8178;DHT22;4130;48.740;9.132;2022-10-31T02:25:02;9.40;99.90
8178;DHT22;4130;48.740;9.132;2022-10-31T02:27:44;9.40;99.90
8178;DHT22;4130;48.740;9.132;2022-10-31T02:30:18;9.40;99.90
8178;DHT22;4130;48.740;9.132;2022-10-31T02:33:01;9.30;99.90
8178;DHT22;4130;48.740;9.132;2022-10-31T02:35:41;9.30;99.90
8178;DHT22;4130;48.740;9.132;2022-10-31T02:38:18;9.30;99.90
8178;DHT22;4130;48.740;9.132;2022-10-31T02:40:50;9.30;99.90
8178;DHT22;4130;48.740;9.132;2022-10-31T02:43:21;9.20;99.90
8178;DHT22;4130;48.740;9.132;2022-10-31T02:45:53;9.20;99.90
8178;DHT22;4130;48.740;9.132;2022-10-31T02:48:26;9.10;99.90
8178;DHT22;4130;48.740;9.132;2022-10-31T02:50:56;9.00;99.90
8178;DHT22;4130;48.740;9.132;2022-10-31T02:53:23;9.00;99.90
8178;DHT22;4130;48.740;9.132;2022-10-31T02:55:56;8.90;99.90
8178;DHT22;4130;48.740;9.132;2022-10-31T02:58:27;8.90;99.90
8178;DHT22;4130;48.740;9.132;2022-10-31T03:04:25;8.90;99.90
8178;DHT22;4130;48.740;9.132;2022-10-31T03:07:02;8.80;99.90
8178;DHT22;4130;48.740;9.132;2022-10-31T03:09:34;9.70;99.90
8178;DHT22;4130;48.740;9.132;2022-10-31T03:12:07;8.80;99.90
8178;DHT22;4130;48.740;9.132;2022-10-31T03:14:41;8.70;99.90
8178;DHT22;4130;48.740;9.132;2022-10-31T03:17:14;8.70;99.90
8178;DHT22;4130;48.740;9.132;2022-10-31T03:19:46;8.70;99.90
8178;DHT22;4130;48.740;9.132;2022-10-31T03:22:16;8.70;99.90
8178;DHT22;4130;48.740;9.132;2022-10-31T03:24:45;8.70;99.90
8178;DHT22;4130;48.740;9.132;2022-10-31T03:27:16;8.70;99.90
8178;DHT22;4130;48.740;9.132;2022-10-31T03:29:45;8.70;99.90
8178;DHT22;4130;48.740;9.132;2022-10-31T03:32:16;8.70;99.90
8178;DHT22;4130;48.740;9.132;2022-10-31T03:34:45;8.70;99.90
8178;DHT22;4130;48.740;9.132;2022-10-31T03:37:14;8.60;99.90
8178;DHT22;4130;48.740;9.132;2022-10-31T03:39:44;8.60;99.90
8178;DHT22;4130;48.740;9.132;2022-10-31T03:42:15;8.60;99.90
8178;DHT22;4130;48.740;9.132;2022-10-31T03:44:45;8.60;99.90
8178;DHT22;4130;48.740;9.132;2022-10-31T03:47:13;8.70;99.90
8178;DHT22;4130;48.740;9.132;2022-10-31T03:49:40;8.60;99.90
8178;DHT22;4130;48.740;9.132;2022-10-31T03:52:14;8.60;99.90
8178;DHT22;4130;48.740;9.132;2022-10-31T03:54:45;8.60;99.90
8178;DHT22;4130;48.740;9.132;2022-10-31T03:57:16;8.60;99.90
8178;DHT22;4130;48.740;9.132;2022-10-31T03:59:47;8.60;99.90
8178;DHT22;4130;48.740;9.132;2022-10-31T04:02:18;8.60;99.90
8178;DHT22;4130;48.740;9.132;2022-10-31T04:04:47;8.60;99.90
8178;DHT22;4130;48.740;9.132;2022-10-31T04:07:17;8.60;99.90
8178;DHT22;4130;48.740;9.132;2022-10-31T04:09:46;8.60;99.90
8178;DHT22;4130;48.740;9.132;2022-10-31T04:12:15;8.60;99.90
8178;DHT22;4130;48.740;9.132;2022-10-31T04:14:44;8.50;99.90
8178;DHT22;4130;48.740;9.132;2022-10-31T04:17:15;8.50;99.90
8178;DHT22;4130;48.740;9.132;2022-10-31T04:19:42;8.50;99.90
8178;DHT22;4130;48.740;9.132;2022-10-31T04:22:09;8.50;99.90
8178;DHT22;4130;48.740;9.132;2022-10-31T04:24:39;8.40;99.90
8178;DHT22;4130;48.740;9.132;2022-10-31T04:27:06;8.40;99.90
8178;DHT22;4130;48.740;9.132;2022-10-31T04:29:33;8.30;99.90
8178;DHT22;4130;48.740;9.132;2022-10-31T04:32:00;8.30;99.90
8178;DHT22;4130;48.740;9.132;2022-10-31T04:34:26;8.30;99.90
8178;DHT22;4130;48.740;9.132;2022-10-31T04:36:53;8.30;99.90
8178;DHT22;4130;48.740;9.132;2022-10-31T04:39:20;8.30;99.90
8178;DHT22;4130;48.740;9.132;2022-10-31T04:41:48;8.30;99.90
8178;DHT22;4130;48.740;9.132;2022-10-31T04:44:14;8.20;99.90
8178;DHT22;4130;48.740;9.132;2022-10-31T04:46:41;8.20;99.90
8178;DHT22;4130;48.740;9.132;2022-10-31T04:49:08;8.10;99.90
8178;DHT22;4130;48.740;9.132;2022-10-31T04:51:34;8.20;99.90
8178;DHT22;4130;48.740;9.132;2022-10-31T04:54:01;8.20;99.90
8178;DHT22;4130;48.740;9.132;2022-10-31T04:56:28;8.20;99.90
8178;DHT22;4130;48.740;9.132;2022-10-31T04:58:56;8.20;99.90
8178;DHT22;4130;48.740;9.132;2022-10-31T05:01:23;8.10;99.90
8178;DHT22;4130;48.740;9.132;2022-10-31T05:03:49;8.10;99.90
8178;DHT22;4130;48.740;9.132;2022-10-31T05:06:16;8.10;99.90
8178;DHT22;4130;48.740;9.132;2022-10-31T05:08:43;8.10;99.90
8178;DHT22;4130;48.740;9.132;2022-10-31T05:11:09;8.00;99.90
8178;DHT22;4130;48.740;9.132;2022-10-31T05:13:36;8.00;99.90
8178;DHT22;4130;48.740;9.132;2022-10-31T05:16:05;8.00;99.90
8178;DHT22;4130;48.740;9.132;2022-10-31T05:18:31;8.10;99.90
8178;DHT22;4130;48.740;9.132;2022-10-31T05:20:58;8.00;99.90
8178;DHT22;4130;48.740;9.132;2022-10-31T05:23:25;8.00;99.90
8178;DHT22;4130;48.740;9.132;2022-10-31T05:25:51;8.00;99.90
8178;DHT22;4130;48.740;9.132;2022-10-31T05:28:18;8.00;99.90
8178;DHT22;4130;48.740;9.132;2022-10-31T05:30:45;8.00;99.90
8178;DHT22;4130;48.740;9.132;2022-10-31T05:33:13;8.00;99.90
8178;DHT22;4130;48.740;9.132;2022-10-31T05:35:39;8.00;99.90
8178;DHT22;4130;48.740;9.132;2022-10-31T05:38:06;8.10;99.90
8178;DHT22;4130;48.740;9.132;2022-10-31T05:40:33;8.10;99.90
8178;DHT22;4130;48.740;9.132;2022-10-31T05:42:59;8.10;99.90
8178;DHT22;4130;48.740;9.132;2022-10-31T05:45:26;8.00;99.90
8178;DHT22;4130;48.740;9.132;2022-10-31T05:47:54;8.00;99.90
8178;DHT22;4130;48.740;9.132;2022-10-31T05:50:23;7.90;99.90
8178;DHT22;4130;48.740;9.132;2022-10-31T05:52:55;7.90;99.90
8178;DHT22;4130;48.740;9.132;2022-10-31T05:55:22;7.90;99.90
8178;DHT22;4130;48.740;9.132;2022-10-31T05:57:48;7.80;99.90
8178;DHT22;4130;48.740;9.132;2022-10-31T06:00:15;7.90;99.90
8178;DHT22;4130;48.740;9.132;2022-10-31T06:02:42;7.90;99.90
8178;DHT22;4130;48.740;9.132;2022-10-31T06:05:09;7.90;99.90
8178;DHT22;4130;48.740;9.132;2022-10-31T06:07:37;8.00;99.90
8178;DHT22;4130;48.740;9.132;2022-10-31T06:10:06;8.00;99.90
8178;DHT22;4130;48.740;9.132;2022-10-31T06:12:34;8.00;99.90
8178;DHT22;4130;48.740;9.132;2022-10-31T06:15:03;8.00;99.90
8178;DHT22;4130;48.740;9.132;2022-10-31T06:17:30;8.00;99.90
8178;DHT22;4130;48.740;9.132;2022-10-31T06:19:57;7.90;99.90
8178;DHT22;4130;48.740;9.132;2022-10-31T06:22:23;7.90;99.90
8178;DHT22;4130;48.740;9.132;2022-10-31T06:24:51;7.90;99.90
8178;DHT22;4130;48.740;9.132;2022-10-31T06:27:18;7.80;99.90
8178;DHT22;4130;48.740;9.132;2022-10-31T06:29:45;7.90;99.90
8178;DHT22;4130;48.740;9.132;2022-10-31T06:32:12;7.90;99.90
8178;DHT22;4130;48.740;9.132;2022-10-31T06:34:39;7.90;99.90
8178;DHT22;4130;48.740;9.132;2022-10-31T06:37:06;7.90;99.90
8178;DHT22;4130;48.740;9.132;2022-10-31T06:39:33;7.90;99.90
8178;DHT22;4130;48.740;9.132;2022-10-31T06:42:01;7.90;99.90
8178;DHT22;4130;48.740;9.132;2022-10-31T06:44:28;7.90;99.90
8178;DHT22;4130;48.740;9.132;2022-10-31T06:46:54;8.00;99.90
8178;DHT22;4130;48.740;9.132;2022-10-31T06:49:21;8.00;99.90
8178;DHT22;4130;48.740;9.132;2022-10-31T06:51:48;8.00;99.90
8178;DHT22;4130;48.740;9.132;2022-10-31T06:54:15;8.00;99.90
8178;DHT22;4130;48.740;9.132;2022-10-31T06:56:42;8.10;99.90
8178;DHT22;4130;48.740;9.132;2022-10-31T06:59:12;8.10;99.90
8178;DHT22;4130;48.740;9.132;2022-10-31T07:01:39;8.20;99.90
8178;DHT22;4130;48.740;9.132;2022-10-31T07:04:09;8.30;99.90
8178;DHT22;4130;48.740;9.132;2022-10-31T07:06:36;8.30;99.90
8178;DHT22;4130;48.740;9.132;2022-10-31T07:09:03;8.40;99.90
8178;DHT22;4130;48.740;9.132;2022-10-31T07:11:30;8.50;99.90
8178;DHT22;4130;48.740;9.132;2022-10-31T07:13:56;8.50;99.90
8178;DHT22;4130;48.740;9.132;2022-10-31T07:16:26;8.60;99.90
8178;DHT22;4130;48.740;9.132;2022-10-31T07:18:53;8.60;99.90
8178;DHT22;4130;48.740;9.132;2022-10-31T07:21:19;8.70;99.90
8178;DHT22;4130;48.740;9.132;2022-10-31T07:23:47;8.80;99.90
8178;DHT22;4130;48.740;9.132;2022-10-31T07:26:14;8.90;99.90
8178;DHT22;4130;48.740;9.132;2022-10-31T07:28:41;9.00;99.90
8178;DHT22;4130;48.740;9.132;2022-10-31T07:31:07;9.00;99.90
8178;DHT22;4130;48.740;9.132;2022-10-31T07:33:35;9.10;99.90
8178;DHT22;4130;48.740;9.132;2022-10-31T07:36:02;9.10;99.90
8178;DHT22;4130;48.740;9.132;2022-10-31T07:38:29;9.20;99.90
8178;DHT22;4130;48.740;9.132;2022-10-31T07:40:56;9.20;99.90
8178;DHT22;4130;48.740;9.132;2022-10-31T07:43:22;9.30;99.90
8178;DHT22;4130;48.740;9.132;2022-10-31T07:45:50;9.40;99.90
8178;DHT22;4130;48.740;9.132;2022-10-31T07:48:17;9.40;99.90
8178;DHT22;4130;48.740;9.132;2022-10-31T07:50:45;9.50;99.90
8178;DHT22;4130;48.740;9.132;2022-10-31T07:53:13;9.60;99.90
8178;DHT22;4130;48.740;9.132;2022-10-31T07:55:40;9.70;99.90
8178;DHT22;4130;48.740;9.132;2022-10-31T07:58:09;9.70;99.90
8178;DHT22;4130;48.740;9.132;2022-10-31T08:00:36;9.80;99.90
8178;DHT22;4130;48.740;9.132;2022-10-31T08:03:05;9.90;99.90
8178;DHT22;4130;48.740;9.132;2022-10-31T08:05:32;10.00;99.90
8178;DHT22;4130;48.740;9.132;2022-10-31T08:08:01;10.20;99.90
8178;DHT22;4130;48.740;9.132;2022-10-31T08:10:28;10.30;99.90
8178;DHT22;4130;48.740;9.132;2022-10-31T08:12:56;10.40;99.90
8178;DHT22;4130;48.740;9.132;2022-10-31T08:15:24;10.50;99.90
8178;DHT22;4130;48.740;9.132;2022-10-31T08:17:51;10.70;99.90
8178;DHT22;4130;48.740;9.132;2022-10-31T08:20:18;10.80;99.90
8178;DHT22;4130;48.740;9.132;2022-10-31T08:22:53;11.00;99.90
8178;DHT22;4130;48.740;9.132;2022-10-31T08:25:21;11.10;99.90
8178;DHT22;4130;48.740;9.132;2022-10-31T08:27:49;11.20;99.90
8178;DHT22;4130;48.740;9.132;2022-10-31T08:30:17;11.30;99.90
8178;DHT22;4130;48.740;9.132;2022-10-31T08:32:43;11.50;99.90
8178;DHT22;4130;48.740;9.132;2022-10-31T08:35:10;11.60;99.90
8178;DHT22;4130;48.740;9.132;2022-10-31T08:37:37;11.70;99.90
8178;DHT22;4130;48.740;9.132;2022-10-31T08:40:04;11.90;99.90
8178;DHT22;4130;48.740;9.132;2022-10-31T08:42:33;12.10;99.90
8178;DHT22;4130;48.740;9.132;2022-10-31T08:45:00;12.20;99.90
8178;DHT22;4130;48.740;9.132;2022-10-31T08:47:26;12.30;99.90
8178;DHT22;4130;48.740;9.132;2022-10-31T08:49:54;12.40;99.90
8178;DHT22;4130;48.740;9.132;2022-10-31T08:52:23;12.40;99.90
8178;DHT22;4130;48.740;9.132;2022-10-31T08:54:50;12.50;99.90
8178;DHT22;4130;48.740;9.132;2022-10-31T08:57:17;12.60;99.90
8178;DHT22;4130;48.740;9.132;2022-10-31T08:59:45;12.70;99.90
8178;DHT22;4130;48.740;9.132;2022-10-31T09:02:12;12.90;99.90
8178;DHT22;4130;48.740;9.132;2022-10-31T09:04:38;13.00;99.90
8178;DHT22;4130;48.740;9.132;2022-10-31T09:07:05;13.00;99.90
8178;DHT22;4130;48.740;9.132;2022-10-31T09:09:32;13.10;99.90
8178;DHT22;4130;48.740;9.132;2022-10-31T09:11:58;13.20;99.90
8178;DHT22;4130;48.740;9.132;2022-10-31T09:14:25;13.30;99.90
8178;DHT22;4130;48.740;9.132;2022-10-31T09:16:53;13.20;99.90
8178;DHT22;4130;48.740;9.132;2022-10-31T09:19:20;13.30;99.90
8178;DHT22;4130;48.740;9.132;2022-10-31T09:21:46;13.50;99.90
8178;DHT22;4130;48.740;9.132;2022-10-31T09:24:13;13.60;99.90
8178;DHT22;4130;48.740;9.132;2022-10-31T09:26:40;13.90;99.90
8178;DHT22;4130;48.740;9.132;2022-10-31T09:29:06;14.00;99.90
8178;DHT22;4130;48.740;9.132;2022-10-31T09:31:35;14.20;99.90
8178;DHT22;4130;48.740;9.132;2022-10-31T09:34:03;14.30;99.90
8178;DHT22;4130;48.740;9.132;2022-10-31T09:36:30;14.30;99.90
8178;DHT22;4130;48.740;9.132;2022-10-31T09:38:57;14.40;99.90
8178;DHT22;4130;48.740;9.132;2022-10-31T09:41:28;14.50;99.90
8178;DHT22;4130;48.740;9.132;2022-10-31T09:44:04;14.60;99.90
8178;DHT22;4130;48.740;9.132;2022-10-31T09:46:41;14.70;99.90
8178;DHT22;4130;48.740;9.132;2022-10-31T09:49:25;14.80;99.90
8178;DHT22;4130;48.740;9.132;2022-10-31T09:52:01;14.90;99.90
8178;DHT22;4130;48.740;9.132;2022-10-31T09:54:40;14.90;99.90
8178;DHT22;4130;48.740;9.132;2022-10-31T09:57:13;15.10;99.90
8178;DHT22;4130;48.740;9.132;2022-10-31T09:59:43;15.20;99.90
8178;DHT22;4130;48.740;9.132;2022-10-31T10:02:15;15.30;99.90
8178;DHT22;4130;48.740;9.132;2022-10-31T10:04:48;15.50;99.90
8178;DHT22;4130;48.740;9.132;2022-10-31T10:07:22;15.80;99.90
8178;DHT22;4130;48.740;9.132;2022-10-31T10:09:52;15.80;99.90
8178;DHT22;4130;48.740;9.132;2022-10-31T10:12:29;15.90;99.90
8178;DHT22;4130;48.740;9.132;2022-10-31T10:15:26;16.00;99.90
8178;DHT22;4130;48.740;9.132;2022-10-31T10:18:04;16.10;99.90
8178;DHT22;4130;48.740;9.132;2022-10-31T10:20:39;16.10;99.90
8178;DHT22;4130;48.740;9.132;2022-10-31T10:23:33;16.30;99.90
8178;DHT22;4130;48.740;9.132;2022-10-31T10:26:10;16.60;99.90
8178;DHT22;4130;48.740;9.132;2022-10-31T10:28:43;16.70;99.90
8178;DHT22;4130;48.740;9.132;2022-10-31T10:31:14;16.90;99.90
8178;DHT22;4130;48.740;9.132;2022-10-31T10:33:45;16.90;99.90
8178;DHT22;4130;48.740;9.132;2022-10-31T10:36:19;17.00;99.90
8178;DHT22;4130;48.740;9.132;2022-10-31T10:38:52;17.20;99.90
8178;DHT22;4130;48.740;9.132;2022-10-31T10:41:21;17.30;99.90
8178;DHT22;4130;48.740;9.132;2022-10-31T10:43:49;17.30;99.90
8178;DHT22;4130;48.740;9.132;2022-10-31T10:46:18;17.50;99.90
8178;DHT22;4130;48.740;9.132;2022-10-31T10:49:19;17.70;99.90
8178;DHT22;4130;48.740;9.132;2022-10-31T10:51:54;17.70;99.90
8178;DHT22;4130;48.740;9.132;2022-10-31T10:57:21;17.70;99.90
8178;DHT22;4130;48.740;9.132;2022-10-31T10:59:48;17.70;99.90
8178;DHT22;4130;48.740;9.132;2022-10-31T11:02:17;17.70;99.90
8178;DHT22;4130;48.740;9.132;2022-10-31T11:04:47;17.70;99.90
8178;DHT22;4130;48.740;9.132;2022-10-31T11:07:16;17.80;99.90
8178;DHT22;4130;48.740;9.132;2022-10-31T11:09:43;17.90;99.90
8178;DHT22;4130;48.740;9.132;2022-10-31T11:12:19;17.90;99.90
8178;DHT22;4130;48.740;9.132;2022-10-31T11:14:48;17.80;99.90
8178;DHT22;4130;48.740;9.132;2022-10-31T11:17:29;18.00;99.90
8178;DHT22;4130;48.740;9.132;2022-10-31T11:20:04;18.20;99.90
8178;DHT22;4130;48.740;9.132;2022-10-31T11:22:32;18.40;99.90
8178;DHT22;4130;48.740;9.132;2022-10-31T11:24:59;18.30;99.90
8178;DHT22;4130;48.740;9.132;2022-10-31T11:27:27;18.40;99.90
8178;DHT22;4130;48.740;9.132;2022-10-31T11:30:05;18.40;99.90
8178;DHT22;4130;48.740;9.132;2022-10-31T11:32:33;18.60;99.90
8178;DHT22;4130;48.740;9.132;2022-10-31T11:35:02;18.60;99.90
8178;DHT22;4130;48.740;9.132;2022-10-31T11:37:34;18.70;99.90
8178;DHT22;4130;48.740;9.132;2022-10-31T11:40:04;18.70;99.90
8178;DHT22;4130;48.740;9.132;2022-10-31T11:42:37;18.80;99.90
8178;DHT22;4130;48.740;9.132;2022-10-31T11:45:13;18.90;99.90
8178;DHT22;4130;48.740;9.132;2022-10-31T11:47:42;19.00;99.90
8178;DHT22;4130;48.740;9.132;2022-10-31T11:50:14;19.20;99.90
8178;DHT22;4130;48.740;9.132;2022-10-31T11:52:46;19.20;99.90
8178;DHT22;4130;48.740;9.132;2022-10-31T11:55:25;19.10;99.90
8178;DHT22;4130;48.740;9.132;2022-10-31T11:57:56;19.00;99.90
8178;DHT22;4130;48.740;9.132;2022-10-31T12:00:27;18.90;99.90
8178;DHT22;4130;48.740;9.132;2022-10-31T12:03:10;18.80;99.90
8178;DHT22;4130;48.740;9.132;2022-10-31T12:05:39;18.80;99.90
8178;DHT22;4130;48.740;9.132;2022-10-31T12:08:09;18.90;99.90
8178;DHT22;4130;48.740;9.132;2022-10-31T12:10:43;19.00;99.90
8178;DHT22;4130;48.740;9.132;2022-10-31T12:13:27;19.10;99.90
8178;DHT22;4130;48.740;9.132;2022-10-31T12:16:00;19.10;99.90
8178;DHT22;4130;48.740;9.132;2022-10-31T12:18:47;19.30;99.90
8178;DHT22;4130;48.740;9.132;2022-10-31T12:21:24;19.40;99.90
8178;DHT22;4130;48.740;9.132;2022-10-31T12:24:06;19.50;99.90
8178;DHT22;4130;48.740;9.132;2022-10-31T12:26:40;19.70;99.90
8178;DHT22;4130;48.740;9.132;2022-10-31T12:29:22;20.00;99.90
8178;DHT22;4130;48.740;9.132;2022-10-31T12:31:59;20.10;99.90
8178;DHT22;4130;48.740;9.132;2022-10-31T12:34:40;19.90;99.90
8178;DHT22;4130;48.740;9.132;2022-10-31T12:37:15;19.80;99.90
8178;DHT22;4130;48.740;9.132;2022-10-31T12:39:51;19.60;99.90
8178;DHT22;4130;48.740;9.132;2022-10-31T12:42:35;19.30;99.90
8178;DHT22;4130;48.740;9.132;2022-10-31T12:45:21;19.20;99.90
8178;DHT22;4130;48.740;9.132;2022-10-31T12:48:00;19.00;99.90
8178;DHT22;4130;48.740;9.132;2022-10-31T12:50:43;19.00;99.90
8178;DHT22;4130;48.740;9.132;2022-10-31T12:53:22;18.90;99.90
8178;DHT22;4130;48.740;9.132;2022-10-31T12:56:05;18.80;99.90
8178;DHT22;4130;48.740;9.132;2022-10-31T12:58:37;18.70;99.90
8178;DHT22;4130;48.740;9.132;2022-10-31T13:01:09;18.70;99.90
8178;DHT22;4130;48.740;9.132;2022-10-31T13:03:44;18.60;99.90
8178;DHT22;4130;48.740;9.132;2022-10-31T13:06:15;18.60;99.90
8178;DHT22;4130;48.740;9.132;2022-10-31T13:08:47;18.60;99.90
8178;DHT22;4130;48.740;9.132;2022-10-31T13:11:21;18.70;99.90
8178;DHT22;4130;48.740;9.132;2022-10-31T13:13:54;18.60;99.90
8178;DHT22;4130;48.740;9.132;2022-10-31T13:16:25;18.50;99.90
8178;DHT22;4130;48.740;9.132;2022-10-31T13:18:55;18.40;99.90
8178;DHT22;4130;48.740;9.132;2022-10-31T13:21:27;18.30;99.90
8178;DHT22;4130;48.740;9.132;2022-10-31T13:24:00;18.30;99.90
8178;DHT22;4130;48.740;9.132;2022-10-31T13:26:37;18.30;99.90
8178;DHT22;4130;48.740;9.132;2022-10-31T13:29:11;18.40;99.90
8178;DHT22;4130;48.740;9.132;2022-10-31T13:31:40;18.30;99.90
8178;DHT22;4130;48.740;9.132;2022-10-31T13:34:15;18.30;99.90
8178;DHT22;4130;48.740;9.132;2022-10-31T13:36:48;18.40;99.90
8178;DHT22;4130;48.740;9.132;2022-10-31T13:39:22;18.50;99.90
8178;DHT22;4130;48.740;9.132;2022-10-31T13:41:53;18.80;99.90
8178;DHT22;4130;48.740;9.132;2022-10-31T13:44:24;19.10;99.90
8178;DHT22;4130;48.740;9.132;2022-10-31T13:46:52;19.30;99.90
8178;DHT22;4130;48.740;9.132;2022-10-31T13:49:26;19.50;99.90
8178;DHT22;4130;48.740;9.132;2022-10-31T13:52:13;19.60;99.90
8178;DHT22;4130;48.740;9.132;2022-10-31T13:54:41;19.50;99.90
8178;DHT22;4130;48.740;9.132;2022-10-31T13:57:17;19.30;99.90
8178;DHT22;4130;48.740;9.132;2022-10-31T13:59:49;19.20;99.90
8178;DHT22;4130;48.740;9.132;2022-10-31T14:02:18;19.00;99.90
8178;DHT22;4130;48.740;9.132;2022-10-31T14:04:49;18.80;99.90
8178;DHT22;4130;48.740;9.132;2022-10-31T14:07:20;18.60;99.90
8178;DHT22;4130;48.740;9.132;2022-10-31T14:09:54;18.50;99.90
8178;DHT22;4130;48.740;9.132;2022-10-31T14:12:27;18.30;99.90
8178;DHT22;4130;48.740;9.132;2022-10-31T14:14:58;18.20;99.90
8178;DHT22;4130;48.740;9.132;2022-10-31T14:17:27;18.00;99.90
8178;DHT22;4130;48.740;9.132;2022-10-31T14:20:00;18.00;99.90
8178;DHT22;4130;48.740;9.132;2022-10-31T14:22:32;17.90;99.90
8178;DHT22;4130;48.740;9.132;2022-10-31T14:24:59;17.80;99.90
8178;DHT22;4130;48.740;9.132;2022-10-31T14:27:45;17.80;99.90
8178;DHT22;4130;48.740;9.132;2022-10-31T14:30:18;17.80;99.90
8178;DHT22;4130;48.740;9.132;2022-10-31T14:32:50;17.90;99.90
8178;DHT22;4130;48.740;9.132;2022-10-31T14:35:20;18.00;99.90
8178;DHT22;4130;48.740;9.132;2022-10-31T14:43:50;17.50;99.90
8178;DHT22;4130;48.740;9.132;2022-10-31T14:46:36;17.30;99.90
8178;DHT22;4130;48.740;9.132;2022-10-31T14:49:17;17.20;99.90
8178;DHT22;4130;48.740;9.132;2022-10-31T14:51:47;17.10;99.90
8178;DHT22;4130;48.740;9.132;2022-10-31T14:54:18;16.90;99.90
8178;DHT22;4130;48.740;9.132;2022-10-31T14:56:49;16.90;99.90
8178;DHT22;4130;48.740;9.132;2022-10-31T14:59:23;16.80;99.90
8178;DHT22;4130;48.740;9.132;2022-10-31T15:01:57;16.60;99.90
8178;DHT22;4130;48.740;9.132;2022-10-31T15:04:26;16.60;99.90
8178;DHT22;4130;48.740;9.132;2022-10-31T15:06:59;16.60;99.90
8178;DHT22;4130;48.740;9.132;2022-10-31T15:09:29;16.50;99.90
8178;DHT22;4130;48.740;9.132;2022-10-31T15:11:58;16.50;99.90
8178;DHT22;4130;48.740;9.132;2022-10-31T15:14:27;16.40;99.90
8178;DHT22;4130;48.740;9.132;2022-10-31T15:16:57;16.30;99.90
8178;DHT22;4130;48.740;9.132;2022-10-31T15:19:25;16.20;99.90
8178;DHT22;4130;48.740;9.132;2022-10-31T15:21:54;16.10;99.90
8178;DHT22;4130;48.740;9.132;2022-10-31T15:24:24;15.90;99.90
8178;DHT22;4130;48.740;9.132;2022-10-31T15:26:53;15.70;99.90
8178;DHT22;4130;48.740;9.132;2022-10-31T15:29:26;15.60;99.90
8178;DHT22;4130;48.740;9.132;2022-10-31T15:31:56;15.40;99.90
8178;DHT22;4130;48.740;9.132;2022-10-31T15:34:28;15.30;99.90
8178;DHT22;4130;48.740;9.132;2022-10-31T15:36:57;15.10;99.90
8178;DHT22;4130;48.740;9.132;2022-10-31T15:39:24;14.90;99.90
8178;DHT22;4130;48.740;9.132;2022-10-31T15:41:53;14.70;99.90
8178;DHT22;4130;48.740;9.132;2022-10-31T15:44:23;14.60;99.90
8178;DHT22;4130;48.740;9.132;2022-10-31T15:47:00;14.40;99.90
8178;DHT22;4130;48.740;9.132;2022-10-31T15:49:31;14.30;99.90
8178;DHT22;4130;48.740;9.132;2022-10-31T15:52:06;14.20;99.90
8178;DHT22;4130;48.740;9.132;2022-10-31T15:54:35;14.10;99.90
8178;DHT22;4130;48.740;9.132;2022-10-31T15:57:04;14.00;99.90
8178;DHT22;4130;48.740;9.132;2022-10-31T15:59:36;13.90;99.90
8178;DHT22;4130;48.740;9.132;2022-10-31T16:02:10;13.90;99.90
8178;DHT22;4130;48.740;9.132;2022-10-31T16:04:37;13.90;99.90
8178;DHT22;4130;48.740;9.132;2022-10-31T16:07:15;13.80;99.90
8178;DHT22;4130;48.740;9.132;2022-10-31T16:09:49;13.70;99.90
8178;DHT22;4130;48.740;9.132;2022-10-31T16:12:16;13.70;99.90
8178;DHT22;4130;48.740;9.132;2022-10-31T16:14:43;13.70;99.90
8178;DHT22;4130;48.740;9.132;2022-10-31T16:17:13;13.60;99.90
8178;DHT22;4130;48.740;9.132;2022-10-31T16:19:47;13.50;99.90
8178;DHT22;4130;48.740;9.132;2022-10-31T16:22:21;13.40;99.90
8178;DHT22;4130;48.740;9.132;2022-10-31T16:24:51;13.30;99.90
8178;DHT22;4130;48.740;9.132;2022-10-31T16:27:19;13.10;99.90
8178;DHT22;4130;48.740;9.132;2022-10-31T16:29:49;13.00;99.90
8178;DHT22;4130;48.740;9.132;2022-10-31T16:32:30;12.90;99.90
8178;DHT22;4130;48.740;9.132;2022-10-31T16:34:58;12.80;99.90
8178;DHT22;4130;48.740;9.132;2022-10-31T16:37:25;12.70;99.90
8178;DHT22;4130;48.740;9.132;2022-10-31T16:39:52;12.60;99.90
8178;DHT22;4130;48.740;9.132;2022-10-31T16:42:19;12.50;99.90